Time;durP1;ratioP1;P1;durP2;ratioP2;P2;SDS_P1;SDS_P2;PMS_P1;PMS_P2;Temp;Humidity;BMP_temperature;BMP_pressure;BME280_temperature;BME280_humidity;BME280_pressure;Samples;Min_cycle;Max_cycle;Signal;HPM_P1;HPM_P2
2021/01/24 00:01:59;;;;;;;6.80;3.47;;;;;;;-145.48;100.00;59605.97;6244025;23;20000;-81
2021/01/24 00:04:25;;;;;;;8.85;3.90;;;;;;;-145.48;100.00;59605.97;6212688;22;20083;-81
2021/01/24 00:06:50;;;;;;;6.88;3.85;;;;;;;-145.48;100.00;59605.97;6213798;23;20008;-80
2021/01/24 00:09:15;;;;;;;12.50;4.20;;;;;;;-145.48;100.00;59605.97;6211739;23;20004;-80
2021/01/24 00:11:41;;;;;;;8.30;4.32;;;;;;;-145.48;100.00;59605.97;6214687;23;20075;-81
2021/01/24 00:14:06;;;;;;;10.35;4.30;;;;;;;-145.48;100.00;59605.97;6213614;23;20004;-80
2021/01/24 00:16:31;;;;;;;11.15;3.78;;;;;;;-145.48;100.00;59605.97;6213137;23;20008;-80
2021/01/24 00:18:57;;;;;;;10.52;4.22;;;;;;;-145.48;100.00;59605.97;6210949;23;20431;-81
2021/01/24 00:21:22;;;;;;;10.45;4.30;;;;;;;-145.48;100.00;59605.97;6214610;23;20011;-80
2021/01/24 00:23:47;;;;;;;9.82;4.03;;;;;;;-145.48;100.00;59605.97;6215358;23;20008;-81
2021/01/24 00:26:12;;;;;;;4.22;2.88;;;;;;;-145.48;100.00;59605.97;6214606;23;20011;-81
2021/01/24 00:28:38;;;;;;;6.57;3.30;;;;;;;-145.48;100.00;59605.97;6213811;23;20004;-80
2021/01/24 00:31:03;;;;;;;6.63;2.95;;;;;;;-145.48;100.00;59605.97;6213159;23;20004;-80
2021/01/24 00:33:28;;;;;;;6.88;2.83;;;;;;;-145.48;100.00;59605.97;6214515;23;20071;-80
2021/01/24 00:35:54;;;;;;;6.78;3.40;;;;;;;-145.48;100.00;59605.97;6212541;23;20009;-80
2021/01/24 00:38:19;;;;;;;6.65;3.85;;;;;;;-145.48;100.00;59605.97;6212956;23;20084;-80
2021/01/24 00:40:44;;;;;;;7.57;3.55;;;;;;;-145.48;100.00;59605.97;6213662;23;20324;-80
2021/01/24 00:43:10;;;;;;;10.63;3.47;;;;;;;-145.48;100.00;59605.97;6213190;23;20008;-80
2021/01/24 00:45:35;;;;;;;7.88;3.35;;;;;;;-145.48;100.00;59605.97;6211972;23;20007;-80
2021/01/24 00:48:00;;;;;;;5.80;3.53;;;;;;;-145.48;100.00;59605.97;6212921;23;20005;-80
2021/01/24 00:50:26;;;;;;;7.88;3.70;;;;;;;-145.48;100.00;59605.97;6212678;23;20004;-78
2021/01/24 00:52:51;;;;;;;8.15;3.42;;;;;;;-145.48;100.00;59605.97;6214189;23;20092;-81
2021/01/24 00:55:16;;;;;;;6.38;3.65;;;;;;;-145.48;100.00;59605.97;6221535;23;20008;-80
2021/01/24 00:57:41;;;;;;;6.85;3.15;;;;;;;-145.48;100.00;59605.97;6213746;23;20009;-80
2021/01/24 01:00:07;;;;;;;8.95;3.80;;;;;;;-145.48;100.00;59605.97;6211425;23;20451;-80
2021/01/24 01:02:33;;;;;;;8.13;3.67;;;;;;;-145.48;100.00;59605.97;6212475;23;20727;-81
2021/01/24 01:04:58;;;;;;;7.05;3.70;;;;;;;-145.48;100.00;59605.97;6237526;23;20019;-81
2021/01/24 01:07:23;;;;;;;6.70;3.83;;;;;;;-145.48;100.00;59605.97;6246640;23;20004;-81
2021/01/24 01:09:49;;;;;;;5.85;3.65;;;;;;;-145.48;100.00;59605.97;6243994;23;20441;-80
2021/01/24 01:12:14;;;;;;;10.73;4.22;;;;;;;-145.48;100.00;59605.97;6242081;23;20004;-80
2021/01/24 01:14:39;;;;;;;12.95;4.65;;;;;;;-145.48;100.00;59605.97;6245183;23;20007;-80
2021/01/24 01:17:05;;;;;;;5.65;3.50;;;;;;;-145.48;100.00;59605.97;6218425;23;20379;-80
2021/01/24 01:19:30;;;;;;;6.88;4.20;;;;;;;-145.48;100.00;59605.97;6245092;23;20107;-80
2021/01/24 01:21:55;;;;;;;11.05;4.93;;;;;;;-145.48;100.00;59605.97;6244369;23;20415;-80
2021/01/24 01:24:21;;;;;;;7.63;4.50;;;;;;;-145.48;100.00;59605.97;6242825;23;20014;-80
2021/01/24 01:26:46;;;;;;;12.45;5.63;;;;;;;-145.48;100.00;59605.97;6243341;23;20011;-81
2021/01/24 01:29:11;;;;;;;11.95;5.47;;;;;;;-145.48;100.00;59605.97;6216113;23;20069;-78
2021/01/24 01:31:37;;;;;;;9.23;4.57;;;;;;;-145.48;100.00;59605.97;6244819;23;20004;-81
2021/01/24 01:34:02;;;;;;;8.80;5.80;;;;;;;-145.48;100.00;59605.97;6245474;23;20014;-80
2021/01/24 01:36:30;;;;;;;8.20;5.20;;;;;;;-145.48;100.00;59605.97;6243733;23;20000;-80
2021/01/24 01:38:57;;;;;;;10.20;5.32;;;;;;;-145.48;100.00;59605.97;6247661;23;20010;-80
2021/01/24 01:41:28;;;;;;;9.98;5.25;;;;;;;-145.48;100.00;59605.97;6247713;23;20004;-80
2021/01/24 01:43:54;;;;;;;9.63;4.95;;;;;;;-145.48;100.00;59605.97;6246407;23;20008;-78
2021/01/24 01:46:20;;;;;;;10.77;4.50;;;;;;;-145.48;100.00;59605.97;6242609;23;20214;-81
2021/01/24 01:48:46;;;;;;;8.40;4.25;;;;;;;-145.48;100.00;59605.97;6244519;23;20365;-80
2021/01/24 01:51:11;;;;;;;8.43;4.05;;;;;;;-145.48;100.00;59605.97;6244635;23;20000;-80
2021/01/24 01:53:37;;;;;;;12.77;5.53;;;;;;;-145.48;100.00;59605.97;6218809;23;20484;-80
2021/01/24 01:56:02;;;;;;;9.23;5.20;;;;;;;-145.48;100.00;59605.97;6246829;23;20004;-80
2021/01/24 01:58:30;;;;;;;10.45;4.68;;;;;;;-145.48;100.00;59605.97;6246712;23;20008;-80
2021/01/24 02:00:57;;;;;;;11.27;5.78;;;;;;;-145.48;100.00;59605.97;6244496;23;20000;-81
2021/01/24 02:03:49;;;;;;;12.32;6.32;;;;;;;-145.48;100.00;59605.97;6246312;23;20729;-81
2021/01/24 02:06:33;;;;;;;10.77;6.32;;;;;;;-145.48;100.00;59605.97;6245165;23;20011;-81
2021/01/24 02:09:20;;;;;;;11.35;6.25;;;;;;;-145.48;100.00;59605.97;6244922;23;20086;-81
2021/01/24 02:12:08;;;;;;;11.15;6.18;;;;;;;-145.48;100.00;59605.97;6243674;23;20038;-81
2021/01/24 02:14:39;;;;;;;14.05;5.82;;;;;;;-145.48;100.00;59605.97;6221165;23;20004;-81
2021/01/24 02:17:08;;;;;;;12.32;6.30;;;;;;;-145.48;100.00;59605.97;6246095;23;20008;-81
2021/01/24 02:19:55;;;;;;;9.90;5.30;;;;;;;-145.48;100.00;59605.97;6245376;23;20083;-80
2021/01/24 02:22:24;;;;;;;8.85;4.50;;;;;;;-145.48;100.00;59605.97;6220071;23;20068;-81
2021/01/24 02:24:55;;;;;;;8.13;4.60;;;;;;;-145.48;100.00;59605.97;6244170;23;20004;-80
2021/01/24 02:27:43;;;;;;;8.50;4.72;;;;;;;-145.48;100.00;59605.97;6216869;23;20046;-81
2021/01/24 02:30:13;;;;;;;9.32;4.47;;;;;;;-145.48;100.00;59605.97;6244257;23;20008;-80
2021/01/24 02:32:39;;;;;;;10.57;5.22;;;;;;;-145.48;100.00;59605.97;6216435;23;20008;-80
2021/01/24 02:35:05;;;;;;;6.25;3.97;;;;;;;-145.48;100.00;59605.97;6243545;23;20007;-80
2021/01/24 02:37:32;;;;;;;6.55;2.83;;;;;;;-145.48;100.00;59605.97;6218215;23;20688;-80
2021/01/24 02:39:59;;;;;;;5.93;3.00;;;;;;;-145.48;100.00;59605.97;6245302;23;20107;-80
2021/01/24 02:42:26;;;;;;;7.63;3.10;;;;;;;-145.48;100.00;59605.97;6244135;23;20010;-80
2021/01/24 02:44:52;;;;;;;2.30;1.40;;;;;;;-145.48;100.00;59605.97;6217360;23;20023;-80
2021/01/24 02:47:18;;;;;;;2.47;1.42;;;;;;;-145.48;100.00;59605.97;6245109;23;20011;-80
2021/01/24 02:49:47;;;;;;;1.15;0.95;;;;;;;-145.48;100.00;59605.97;6243942;23;20000;-80
2021/01/24 02:52:16;;;;;;;2.60;1.02;;;;;;;-145.48;100.00;59605.97;6245345;23;20363;-80
2021/01/24 02:54:42;;;;;;;0.90;0.70;;;;;;;-145.48;100.00;59605.97;6247416;23;20011;-81
2021/01/24 02:57:10;;;;;;;1.38;1.10;;;;;;;-145.48;100.00;59605.97;6247815;23;20019;-81
2021/01/24 02:59:36;;;;;;;1.50;1.38;;;;;;;-145.48;100.00;59605.97;6245977;23;20102;-81
2021/01/24 03:02:02;;;;;;;1.33;1.15;;;;;;;-145.48;100.00;59605.97;6244267;23;20107;-80
2021/01/24 03:04:27;;;;;;;2.20;1.02;;;;;;;-145.48;100.00;59605.97;6245743;22;20078;-80
2021/01/24 03:06:52;;;;;;;2.25;1.88;;;;;;;-145.48;100.00;59605.97;6222498;23;20004;-81
2021/01/24 03:09:18;;;;;;;4.05;1.15;;;;;;;-145.48;100.00;59605.97;6217384;23;20065;-81
2021/01/24 03:11:46;;;;;;;1.75;1.33;;;;;;;-145.48;100.00;59605.97;6245138;23;19996;-80
2021/01/24 03:14:19;;;;;;;3.25;1.25;;;;;;;-145.48;100.00;59605.97;6243632;23;20008;-80
2021/01/24 03:16:50;;;;;;;2.03;1.08;;;;;;;-145.48;100.00;59605.97;6243521;23;20445;-81
2021/01/24 03:19:21;;;;;;;2.65;1.10;;;;;;;-145.48;100.00;59605.97;6216186;23;20081;-80
2021/01/24 03:21:49;;;;;;;3.63;1.25;;;;;;;-145.48;100.00;59605.97;6245895;23;20014;-81
2021/01/24 03:24:17;;;;;;;4.63;1.30;;;;;;;-145.48;100.00;59605.97;6245462;23;20008;-80
2021/01/24 03:26:44;;;;;;;2.88;1.10;;;;;;;-145.48;100.00;59605.97;6248893;23;20057;-80
2021/01/24 03:29:13;;;;;;;3.95;1.15;;;;;;;-145.48;100.00;59605.97;6251172;23;20015;-81
2021/01/24 03:31:40;;;;;;;6.63;1.10;;;;;;;-145.48;100.00;59605.97;6247639;23;20016;-81
2021/01/24 03:34:14;;;;;;;4.22;1.27;;;;;;;-145.48;100.00;59605.97;6243629;23;20305;-80
2021/01/24 03:36:40;;;;;;;2.05;1.38;;;;;;;-145.48;100.00;59605.97;6244047;23;20106;-80
2021/01/24 03:39:05;;;;;;;6.97;1.67;;;;;;;-145.48;100.00;59605.97;6216100;23;20008;-80
2021/01/24 03:41:30;;;;;;;1.38;0.90;;;;;;;-145.48;100.00;59605.97;6244173;23;20090;-81
2021/01/24 03:43:56;;;;;;;1.30;0.70;;;;;;;-145.48;100.00;59605.97;6243979;23;20149;-81
2021/01/24 03:46:24;;;;;;;1.00;0.77;;;;;;;-145.48;100.00;59605.97;6244015;23;20656;-81
2021/01/24 03:48:49;;;;;;;2.50;0.55;;;;;;;-145.48;100.00;59605.97;6244443;23;20291;-79
2021/01/24 03:51:14;;;;;;;1.30;0.60;;;;;;;-145.48;100.00;59605.97;6243651;23;19996;-79
2021/01/24 03:53:40;;;;;;;1.08;0.70;;;;;;;-145.48;100.00;59605.97;6218550;23;20059;-80
2021/01/24 03:56:05;;;;;;;2.70;1.30;;;;;;;-145.48;100.00;59605.97;6217978;23;20008;-78
2021/01/24 03:58:30;;;;;;;1.23;0.80;;;;;;;-145.48;100.00;59605.97;6247312;23;20004;-79
2021/01/24 04:00:56;;;;;;;2.33;0.60;;;;;;;-145.48;100.00;59605.97;6246945;23;20431;-79
2021/01/24 04:03:21;;;;;;;2.30;1.00;;;;;;;-145.48;100.00;59605.97;6217836;22;20000;-79
2021/01/24 04:05:46;;;;;;;1.98;0.60;;;;;;;-145.48;100.00;59605.97;6244544;23;20369;-79
2021/01/24 04:08:13;;;;;;;2.88;0.50;;;;;;;-145.48;100.00;59605.97;6217737;23;20058;-79
2021/01/24 04:10:39;;;;;;;1.83;0.80;;;;;;;-145.48;100.00;59605.97;6242447;23;20007;-79
2021/01/24 04:13:04;;;;;;;0.73;0.52;;;;;;;-145.48;100.00;59605.97;6244442;23;20379;-79
2021/01/24 04:15:29;;;;;;;1.83;0.70;;;;;;;-145.48;100.00;59605.97;6246087;23;20087;-79
2021/01/24 04:17:55;;;;;;;3.22;0.80;;;;;;;-145.48;100.00;59605.97;6220093;23;20050;-79
2021/01/24 04:20:20;;;;;;;1.58;1.02;;;;;;;-145.48;100.00;59605.97;6246479;23;20011;-79
2021/01/24 04:22:45;;;;;;;4.38;0.70;;;;;;;-145.48;100.00;59605.97;6246880;23;20004;-79
2021/01/24 04:25:15;;;;;;;1.10;0.60;;;;;;;-145.48;100.00;59605.97;6216279;23;20012;-79
2021/01/24 04:27:41;;;;;;;0.70;0.45;;;;;;;-145.48;100.00;59605.97;6217041;23;20012;-79
2021/01/24 04:30:07;;;;;;;0.63;0.55;;;;;;;-145.48;100.00;59605.97;6242649;23;20000;-78
2021/01/24 04:32:32;;;;;;;1.63;0.75;;;;;;;-145.48;100.00;59605.97;6243922;23;20448;-79
2021/01/24 04:34:57;;;;;;;0.65;0.55;;;;;;;-145.48;100.00;59605.97;6245936;23;20007;-79
2021/01/24 04:37:22;;;;;;;1.55;0.73;;;;;;;-145.48;100.00;59605.97;6246491;23;20004;-79
2021/01/24 04:39:48;;;;;;;2.97;1.35;;;;;;;-145.48;100.00;59605.97;6219291;23;20318;-79
2021/01/24 04:42:13;;;;;;;2.58;0.70;;;;;;;-145.48;100.00;59605.97;6246012;23;20000;-79
2021/01/24 04:44:38;;;;;;;1.27;0.60;;;;;;;-145.48;100.00;59605.97;6243490;23;20307;-79
2021/01/24 04:47:08;;;;;;;2.00;0.73;;;;;;;-145.48;100.00;59605.97;6219925;23;20004;-80
2021/01/24 04:49:34;;;;;;;1.95;1.15;;;;;;;-145.48;100.00;59605.97;6216779;23;20014;-80
2021/01/24 04:51:59;;;;;;;1.63;1.13;;;;;;;-145.48;100.00;59605.97;6244172;23;20026;-80
2021/01/24 04:54:26;;;;;;;3.22;1.35;;;;;;;-145.48;100.00;59605.97;6245509;23;20087;-79
2021/01/24 04:56:51;;;;;;;2.75;1.30;;;;;;;-145.48;100.00;59605.97;6218559;23;20008;-80
2021/01/24 04:59:17;;;;;;;3.35;1.50;;;;;;;-145.48;100.00;59605.97;6217081;23;20019;-80
2021/01/24 05:01:44;;;;;;;1.98;1.23;;;;;;;-145.48;100.00;59605.97;6244861;23;20023;-80
2021/01/24 05:04:09;;;;;;;2.55;1.58;;;;;;;-145.48;100.00;59605.97;6244000;23;20397;-79
2021/01/24 05:06:35;;;;;;;4.28;1.85;;;;;;;-145.48;100.00;59605.97;6216922;23;20008;-80
2021/01/24 05:09:05;;;;;;;4.68;2.10;;;;;;;-145.48;100.00;59605.97;6216983;23;20473;-80
2021/01/24 05:11:31;;;;;;;5.43;2.55;;;;;;;-145.48;100.00;59605.97;6247019;23;20696;-80
2021/01/24 05:14:17;;;;;;;4.03;2.33;;;;;;;-145.48;100.00;59605.97;6246958;23;20032;-79
2021/01/24 05:16:43;;;;;;;4.43;2.38;;;;;;;-145.48;100.00;59605.97;6246198;23;20429;-79
2021/01/24 05:19:09;;;;;;;4.10;2.65;;;;;;;-145.48;100.00;59605.97;6245987;23;20071;-79
2021/01/24 05:21:37;;;;;;;5.80;2.33;;;;;;;-145.48;100.00;59605.97;6220855;23;20322;-79
2021/01/24 05:24:06;;;;;;;5.38;3.13;;;;;;;-145.48;100.00;59605.97;6245136;23;20307;-80
2021/01/24 05:26:35;;;;;;;5.45;2.28;;;;;;;-145.48;100.00;59605.97;6220457;23;20385;-80
2021/01/24 05:29:01;;;;;;;4.68;2.28;;;;;;;-145.48;100.00;59605.97;6248201;23;20000;-80
2021/01/24 05:31:26;;;;;;;2.75;1.75;;;;;;;-145.48;100.00;59605.97;6246986;23;20012;-80
2021/01/24 05:33:56;;;;;;;3.28;1.75;;;;;;;-145.48;100.00;59605.97;6245890;23;20112;-79
2021/01/24 05:36:21;;;;;;;5.53;1.38;;;;;;;-145.48;100.00;59605.97;6245531;23;20195;-80
2021/01/24 05:38:46;;;;;;;3.53;1.92;;;;;;;-145.48;100.00;59605.97;6219870;23;20012;-80
2021/01/24 05:41:12;;;;;;;5.90;2.20;;;;;;;-145.48;100.00;59605.97;6244535;23;20008;-79
2021/01/24 05:43:39;;;;;;;5.05;2.80;;;;;;;-145.48;100.00;59605.97;6217234;23;20004;-79
2021/01/24 05:46:06;;;;;;;8.85;3.83;;;;;;;-145.48;100.00;59605.97;6243973;23;20011;-79
2021/01/24 05:48:33;;;;;;;8.70;2.88;;;;;;;-145.48;100.00;59605.97;6243922;23;20008;-79
2021/01/24 05:51:02;;;;;;;7.28;2.72;;;;;;;-145.48;100.00;59605.97;6242124;23;20060;-79
2021/01/24 05:53:28;;;;;;;4.25;2.60;;;;;;;-145.48;100.00;59605.97;6217160;23;20004;-79
2021/01/24 05:55:53;;;;;;;3.72;2.45;;;;;;;-145.48;100.00;59605.97;6246093;23;20015;-79
2021/01/24 05:58:23;;;;;;;8.13;2.15;;;;;;;-145.48;100.00;59605.97;6246621;23;20430;-79
2021/01/24 06:00:50;;;;;;;5.32;2.15;;;;;;;-145.48;100.00;59605.97;6219618;23;20008;-79
2021/01/24 06:03:17;;;;;;;4.47;1.98;;;;;;;-145.48;100.00;59605.97;6244279;23;20007;-79
2021/01/24 06:05:43;;;;;;;6.65;2.40;;;;;;;-145.48;100.00;59605.97;6246447;23;20004;-79
2021/01/24 06:08:10;;;;;;;5.93;2.70;;;;;;;-145.48;100.00;59605.97;6219193;23;20014;-79
2021/01/24 06:10:35;;;;;;;7.63;2.83;;;;;;;-145.48;100.00;59605.97;6245957;23;20385;-80
2021/01/24 06:13:01;;;;;;;4.55;2.28;;;;;;;-145.48;100.00;59605.97;6245621;23;20075;-80
2021/01/24 06:15:31;;;;;;;5.20;2.38;;;;;;;-145.48;100.00;59605.97;6246717;23;20082;-79
2021/01/24 06:17:58;;;;;;;6.88;2.95;;;;;;;-145.48;100.00;59605.97;6248494;23;20011;-80
2021/01/24 06:20:32;;;;;;;7.10;2.60;;;;;;;-145.48;100.00;59605.97;6246536;23;20004;-80
2021/01/24 06:23:16;;;;;;;7.38;2.75;;;;;;;-145.48;100.00;59605.97;6244388;23;20050;-79
2021/01/24 06:25:45;;;;;;;6.63;3.20;;;;;;;-145.48;100.00;59605.97;6241431;23;20311;-79
2021/01/24 06:28:18;;;;;;;7.25;3.03;;;;;;;-145.48;100.00;59605.97;6240954;23;20034;-79
2021/01/24 06:30:45;;;;;;;8.18;2.70;;;;;;;-145.48;100.00;59605.97;6240673;23;20086;-80
2021/01/24 06:33:22;;;;;;;7.80;2.40;;;;;;;-145.48;100.00;59605.97;6243180;23;20008;-80
2021/01/24 06:36:00;;;;;;;4.78;2.13;;;;;;;-145.48;100.00;59605.97;6215663;23;20023;-79
2021/01/24 06:38:35;;;;;;;4.63;2.20;;;;;;;-145.48;100.00;59605.97;6241751;23;20473;-78
2021/01/24 06:41:03;;;;;;;6.82;2.42;;;;;;;-145.48;100.00;59605.97;6215033;23;20000;-79
2021/01/24 06:43:42;;;;;;;7.90;2.20;;;;;;;-145.48;100.00;59605.97;6244120;23;20008;-79
2021/01/24 06:46:28;;;;;;;4.30;2.15;;;;;;;-145.48;100.00;59605.97;6242286;23;20015;-79
2021/01/24 06:48:54;;;;;;;5.80;2.42;;;;;;;-145.48;100.00;59605.97;6222888;23;20630;-80
2021/01/24 06:51:40;;;;;;;3.47;1.98;;;;;;;-145.48;100.00;59605.97;6241620;23;20358;-79
2021/01/24 06:54:07;;;;;;;7.38;2.25;;;;;;;-145.48;100.00;59605.97;6243600;23;20054;-80
2021/01/24 06:56:40;;;;;;;9.73;2.35;;;;;;;-145.48;100.00;59605.97;6243116;23;20003;-79
2021/01/24 06:59:06;;;;;;;5.97;2.53;;;;;;;-145.48;100.00;59605.97;6216735;23;20012;-79
2021/01/24 07:01:33;;;;;;;5.38;2.60;;;;;;;-145.48;100.00;59605.97;6217078;23;20386;-79
2021/01/24 07:04:20;;;;;;;4.20;2.83;;;;;;;-145.48;100.00;59605.97;6242597;23;20024;-80
2021/01/24 07:06:55;;;;;;;7.35;3.90;;;;;;;-145.48;100.00;59605.97;6241383;23;20292;-80
2021/01/24 07:09:26;;;;;;;9.98;4.43;;;;;;;-145.48;100.00;59605.97;6245858;23;20458;-80
2021/01/24 07:11:57;;;;;;;10.90;4.55;;;;;;;-145.48;100.00;59605.97;6250501;23;20011;-80
2021/01/24 07:14:31;;;;;;;11.77;5.38;;;;;;;-145.48;100.00;59605.97;6214310;23;20766;-79
2021/01/24 07:16:58;;;;;;;10.05;4.80;;;;;;;-145.48;100.00;59605.97;6241467;23;20568;-79
2021/01/24 07:19:24;;;;;;;10.15;4.70;;;;;;;-145.48;100.00;59605.97;6238983;23;20008;-79
2021/01/24 07:21:49;;;;;;;8.88;4.78;;;;;;;-145.48;100.00;59605.97;6239972;23;20043;-79
2021/01/24 07:24:15;;;;;;;12.32;5.72;;;;;;;-145.48;100.00;59605.97;6240113;23;20004;-79
2021/01/24 07:26:40;;;;;;;10.25;5.97;;;;;;;-145.48;100.00;59605.97;6242368;23;20004;-80
2021/01/24 07:29:07;;;;;;;10.40;4.78;;;;;;;-145.48;100.00;59605.97;6245299;23;20008;-80
2021/01/24 07:31:32;;;;;;;12.30;5.20;;;;;;;-145.48;100.00;59605.97;6246013;23;20004;-80
2021/01/24 07:33:59;;;;;;;13.15;5.68;;;;;;;-145.48;100.00;59605.97;6216153;23;20069;-79
2021/01/24 07:36:25;;;;;;;7.53;5.05;;;;;;;-145.48;100.00;59605.97;6241308;23;20011;-80
2021/01/24 07:38:50;;;;;;;16.95;5.70;;;;;;;-145.48;100.00;59605.97;6241781;23;20008;-80
2021/01/24 07:41:16;;;;;;;9.57;5.78;;;;;;;-145.48;100.00;59605.97;6240343;23;20008;-80
2021/01/24 07:43:42;;;;;;;18.85;5.68;;;;;;;-145.48;100.00;59605.97;6242446;23;20008;-80
2021/01/24 07:46:07;;;;;;;14.98;6.07;;;;;;;-145.48;100.00;59605.97;6241486;23;20377;-80
2021/01/24 07:48:32;;;;;;;14.45;6.47;;;;;;;-145.48;100.00;59605.97;6243607;23;20000;-80
2021/01/24 07:50:57;;;;;;;11.80;5.18;;;;;;;-145.48;100.00;59605.97;6216593;23;20407;-81
2021/01/24 07:53:23;;;;;;;15.80;6.88;;;;;;;-145.48;100.00;59605.97;6243661;23;20063;-80
2021/01/24 07:55:48;;;;;;;13.20;5.97;;;;;;;-145.48;100.00;59605.97;6241688;23;20008;-80
2021/01/24 07:58:14;;;;;;;13.75;6.13;;;;;;;-145.48;100.00;59605.97;6213752;23;19996;-80
2021/01/24 08:00:40;;;;;;;10.90;5.95;;;;;;;-145.48;100.00;59605.97;6241603;23;20062;-80
2021/01/24 08:03:06;;;;;;;14.27;5.97;;;;;;;-145.48;100.00;59605.97;6242312;23;20008;-80
2021/01/24 08:05:33;;;;;;;13.18;5.45;;;;;;;-145.48;100.00;59605.97;6242718;22;20024;-80
2021/01/24 08:07:58;;;;;;;8.48;5.07;;;;;;;-145.48;100.00;59605.97;6244154;23;20008;-80
2021/01/24 08:10:29;;;;;;;10.32;4.65;;;;;;;-145.48;100.00;59605.97;6242310;23;20061;-80
2021/01/24 08:12:55;;;;;;;9.60;5.00;;;;;;;-145.48;100.00;59605.97;6241955;23;20008;-80
2021/01/24 08:15:20;;;;;;;8.70;4.38;;;;;;;-145.48;100.00;59605.97;6241041;23;20004;-79
2021/01/24 08:17:46;;;;;;;8.88;3.47;;;;;;;-145.48;100.00;59605.97;6243472;23;20012;-80
2021/01/24 08:20:12;;;;;;;11.30;3.13;;;;;;;-145.48;100.00;59605.97;6216122;23;20035;-80
2021/01/24 08:22:37;;;;;;;5.72;2.75;;;;;;;-145.48;100.00;59605.97;6244129;23;20016;-80
2021/01/24 08:25:03;;;;;;;7.43;3.03;;;;;;;-145.48;100.00;59605.97;6243530;23;20008;-80
2021/01/24 08:27:30;;;;;;;16.10;3.92;;;;;;;-145.48;100.00;59605.97;6219456;23;20000;-80
2021/01/24 08:29:56;;;;;;;6.00;2.53;;;;;;;-145.48;100.00;59605.97;6217965;23;20043;-80
2021/01/24 08:32:22;;;;;;;4.68;1.88;;;;;;;-145.48;100.00;59605.97;6218659;23;20084;-80
2021/01/24 08:34:48;;;;;;;7.35;2.50;;;;;;;-145.48;100.00;59605.97;6243195;23;20011;-80
2021/01/24 08:37:13;;;;;;;6.95;3.42;;;;;;;-145.48;100.00;59605.97;6244142;23;20015;-80
2021/01/24 08:39:39;;;;;;;6.25;2.78;;;;;;;-145.48;100.00;59605.97;6242819;23;20007;-80
2021/01/24 08:42:05;;;;;;;9.18;2.80;;;;;;;-145.48;100.00;59605.97;6217668;23;20004;-80
2021/01/24 08:44:30;;;;;;;8.10;3.65;;;;;;;-145.48;100.00;59605.97;6242214;23;20636;-79
2021/01/24 08:47:05;;;;;;;10.82;4.13;;;;;;;-145.48;100.00;59605.97;6243929;23;20011;-80
2021/01/24 08:49:31;;;;;;;15.88;4.32;;;;;;;-145.48;100.00;59605.97;6242735;23;20664;-80
2021/01/24 08:51:58;;;;;;;9.00;3.60;;;;;;;-145.48;100.00;59605.97;6217519;23;20004;-82
2021/01/24 08:54:37;;;;;;;9.70;3.65;;;;;;;-145.48;100.00;59605.97;6219491;23;20521;-82
2021/01/24 08:57:13;;;;;;;9.52;3.75;;;;;;;-145.48;100.00;59605.97;6248030;23;20011;-82
2021/01/24 08:59:48;;;;;;;5.95;2.67;;;;;;;-145.48;100.00;59605.97;6218390;23;20008;-81
2021/01/24 09:02:13;;;;;;;9.57;3.95;;;;;;;-145.48;100.00;59605.97;6248157;23;20070;-81
2021/01/24 09:04:46;;;;;;;10.95;3.90;;;;;;;-145.48;100.00;59605.97;6246257;22;20016;-81
2021/01/24 09:07:12;;;;;;;9.07;3.92;;;;;;;-145.48;100.00;59605.97;6245057;23;20145;-80
2021/01/24 09:09:43;;;;;;;15.60;4.38;;;;;;;-145.48;100.00;59605.97;6247301;23;20100;-81
2021/01/24 09:12:14;;;;;;;13.55;4.00;;;;;;;-145.48;100.00;59605.97;6246543;23;20004;-82
2021/01/24 09:14:39;;;;;;;11.13;3.28;;;;;;;-145.48;100.00;59605.97;6220286;23;20008;-80
2021/01/24 09:17:07;;;;;;;11.50;3.42;;;;;;;-145.48;100.00;59605.97;6219599;23;20093;-81
2021/01/24 09:19:34;;;;;;;6.65;3.08;;;;;;;-145.48;100.00;59605.97;6220040;23;20031;-81
2021/01/24 09:21:59;;;;;;;6.95;2.92;;;;;;;-145.48;100.00;59605.97;6247144;23;20355;-81
2021/01/24 09:24:25;;;;;;;7.90;3.00;;;;;;;-145.48;100.00;59605.97;6248616;23;20004;-80
2021/01/24 09:26:50;;;;;;;11.57;3.10;;;;;;;-145.48;100.00;59605.97;6247082;23;20304;-81
2021/01/24 09:29:17;;;;;;;10.70;3.38;;;;;;;-145.48;100.00;59605.97;6220397;23;20007;-80
2021/01/24 09:31:42;;;;;;;7.60;2.88;;;;;;;-145.48;100.00;59605.97;6220841;23;20000;-82
2021/01/24 09:34:07;;;;;;;7.90;2.70;;;;;;;-145.48;100.00;59605.97;6248237;23;20039;-81
2021/01/24 09:36:33;;;;;;;6.30;3.00;;;;;;;-145.48;100.00;59605.97;6249412;23;20000;-83
2021/01/24 09:38:59;;;;;;;12.38;3.17;;;;;;;-145.48;100.00;59605.97;6250483;23;20414;-82
2021/01/24 09:41:24;;;;;;;9.73;3.17;;;;;;;-145.48;100.00;59605.97;6249153;23;20004;-81
2021/01/24 09:43:49;;;;;;;9.55;2.95;;;;;;;-145.48;100.00;59605.97;6220710;23;20130;-81
2021/01/24 09:46:14;;;;;;;5.88;2.38;;;;;;;-145.48;100.00;59605.97;6247788;23;20000;-81
2021/01/24 09:48:40;;;;;;;8.52;2.42;;;;;;;-145.48;100.00;59605.97;6220421;23;19996;-81
2021/01/24 09:51:08;;;;;;;8.95;2.88;;;;;;;-145.48;100.00;59605.97;6246186;23;20004;-81
2021/01/24 09:53:37;;;;;;;9.02;2.47;;;;;;;-145.48;100.00;59605.97;6247288;23;20011;-82
2021/01/24 09:56:06;;;;;;;8.90;2.40;;;;;;;-145.48;100.00;59605.97;6247154;23;20008;-81
2021/01/24 09:58:31;;;;;;;7.97;2.55;;;;;;;-145.48;100.00;59605.97;6247500;23;20012;-82
2021/01/24 10:00:57;;;;;;;7.75;3.97;;;;;;;-145.48;100.00;59605.97;6247271;23;20004;-81
2021/01/24 10:03:22;;;;;;;9.32;3.10;;;;;;;-145.48;100.00;59605.97;6249438;23;19996;-81
2021/01/24 10:05:48;;;;;;;16.70;2.72;;;;;;;-145.48;100.00;59605.97;6224039;23;20008;-81
2021/01/24 10:08:14;;;;;;;7.20;2.53;;;;;;;-145.48;100.00;59605.97;6249743;23;20011;-81
2021/01/24 10:10:39;;;;;;;7.38;1.90;;;;;;;-145.48;100.00;59605.97;6219684;23;20000;-81
2021/01/24 10:13:04;;;;;;;12.57;2.55;;;;;;;-145.48;100.00;59605.97;6220349;23;20062;-80
2021/01/24 10:15:29;;;;;;;10.77;3.58;;;;;;;-145.48;100.00;59605.97;6247473;23;20004;-80
2021/01/24 10:17:55;;;;;;;7.35;2.40;;;;;;;-145.48;100.00;59605.97;6246610;23;20031;-81
2021/01/24 10:20:20;;;;;;;12.02;2.65;;;;;;;-145.48;100.00;59605.97;6245878;23;20014;-80
2021/01/24 10:22:46;;;;;;;7.53;2.30;;;;;;;-145.48;100.00;59605.97;6245917;23;20011;-81
2021/01/24 10:25:11;;;;;;;8.93;3.53;;;;;;;-145.48;100.00;59605.97;6243636;23;20070;-81
2021/01/24 10:27:36;;;;;;;8.57;3.00;;;;;;;-145.48;100.00;59605.97;6245581;23;20011;-80
2021/01/24 10:30:03;;;;;;;5.30;2.80;;;;;;;-145.48;100.00;59605.97;6244818;23;20003;-82
2021/01/24 10:32:28;;;;;;;9.93;1.90;;;;;;;-145.48;100.00;59605.97;6220644;23;20012;-82
2021/01/24 10:34:53;;;;;;;8.70;2.55;;;;;;;-145.48;100.00;59605.97;6245574;23;20008;-81
2021/01/24 10:37:19;;;;;;;9.02;3.15;;;;;;;-145.48;100.00;59605.97;6247126;23;20000;-80
2021/01/24 10:39:44;;;;;;;8.35;3.33;;;;;;;-145.48;100.00;59605.97;6247509;23;20011;-82
2021/01/24 10:42:12;;;;;;;5.75;2.13;;;;;;;-145.48;100.00;59605.97;6249591;23;20367;-82
2021/01/24 10:44:37;;;;;;;13.98;3.58;;;;;;;-145.48;100.00;59605.97;6247439;23;20635;-80
2021/01/24 10:47:02;;;;;;;6.95;2.28;;;;;;;-145.48;100.00;59605.97;6219349;23;20012;-80
2021/01/24 10:49:28;;;;;;;10.18;2.67;;;;;;;-145.48;100.00;59605.97;6246138;23;20000;-81
2021/01/24 10:51:53;;;;;;;7.72;2.50;;;;;;;-145.48;100.00;59605.97;6247144;23;20425;-83
2021/01/24 10:54:20;;;;;;;7.15;2.05;;;;;;;-145.48;100.00;59605.97;6228725;23;20445;-81
2021/01/24 10:56:45;;;;;;;12.52;2.60;;;;;;;-145.48;100.00;59605.97;6248660;23;20038;-81
2021/01/24 10:59:10;;;;;;;10.55;2.97;;;;;;;-145.48;100.00;59605.97;6221110;23;20717;-81
2021/01/24 11:01:35;;;;;;;9.07;2.65;;;;;;;-145.48;100.00;59605.97;6218913;23;20004;-81
2021/01/24 11:04:01;;;;;;;5.70;2.20;;;;;;;-145.48;100.00;59605.97;6246047;23;20336;-80
2021/01/24 11:06:26;;;;;;;10.07;3.38;;;;;;;-145.48;100.00;59605.97;6244283;23;20003;-81
2021/01/24 11:08:51;;;;;;;6.55;2.38;;;;;;;-145.48;100.00;59605.97;6218381;23;20004;-80